createdAt,value
2023-02-19T00:02:35.896Z,11.49
2023-02-19T00:07:44.078Z,11.50
2023-02-19T00:12:54.299Z,11.36
2023-02-19T00:18:07.527Z,11.36
2023-02-19T00:23:15.151Z,11.41
2023-02-19T00:28:19.898Z,11.67
2023-02-19T00:33:36.924Z,11.81
2023-02-19T00:38:43.366Z,11.84
2023-02-19T00:43:53.553Z,11.83
2023-02-19T00:49:05.917Z,11.95
2023-02-19T00:54:11.018Z,11.94
2023-02-19T00:59:33.266Z,11.85
2023-02-19T01:04:43.561Z,11.89
2023-02-19T01:10:00.731Z,11.68
2023-02-19T01:15:19.865Z,11.31
2023-02-19T01:20:37.019Z,11.65
2023-02-19T01:25:46.805Z,11.61
2023-02-19T01:30:57.644Z,11.82
2023-02-19T01:36:30.749Z,11.80
2023-02-19T01:41:43.152Z,11.81
2023-02-19T01:46:52.180Z,11.74
2023-02-19T01:52:02.708Z,11.87
2023-02-19T01:57:25.003Z,12.00
2023-02-19T02:02:42.236Z,12.05
2023-02-19T02:08:09.779Z,12.03
2023-02-19T02:13:20.325Z,11.91
2023-02-19T02:18:41.197Z,12.08
2023-02-19T02:24:04.824Z,11.89
2023-02-19T02:29:37.570Z,11.98
2023-02-19T02:34:55.996Z,11.94
2023-02-19T02:40:15.243Z,11.89
2023-02-19T02:45:51.776Z,11.81
2023-02-19T02:51:06.773Z,11.82
2023-02-19T02:56:15.538Z,11.83
2023-02-19T03:01:42.289Z,11.79
2023-02-19T03:07:00.643Z,11.90
2023-02-19T03:12:25.809Z,11.69
2023-02-19T03:17:51.041Z,11.62
2023-02-19T03:23:11.478Z,11.65
2023-02-19T03:28:46.594Z,11.70
2023-02-19T03:33:57.833Z,11.46
2023-02-19T03:39:10.451Z,11.36
2023-02-19T03:44:34.297Z,11.12
2023-02-19T03:49:44.525Z,11.16
2023-02-19T03:55:13.570Z,11.16
2023-02-19T04:00:51.183Z,11.36
2023-02-19T04:06:00.880Z,11.51
2023-02-19T04:11:20.672Z,11.51
2023-02-19T04:16:29.863Z,11.48
2023-02-19T04:21:37.046Z,11.56
2023-02-19T04:27:00.530Z,11.71
2023-02-19T04:32:11.428Z,11.76
2023-02-19T04:37:22.732Z,11.78
2023-02-19T04:42:39.093Z,11.73
2023-02-19T04:47:47.145Z,11.75
2023-02-19T04:52:57.383Z,11.60
2023-02-19T04:58:14.715Z,11.49
2023-02-19T05:03:27.857Z,11.69
2023-02-19T05:08:38.073Z,11.72
2023-02-19T05:13:48.289Z,11.79
2023-02-19T05:18:57.487Z,11.88
2023-02-19T05:24:03.703Z,11.87
2023-02-19T05:29:07.878Z,11.88
2023-02-19T05:34:22.106Z,11.94
2023-02-19T05:39:26.296Z,11.88
2023-02-19T05:44:33.669Z,11.94
2023-02-19T05:49:57.781Z,11.89
2023-02-19T05:55:06.937Z,11.89
2023-02-19T06:00:28.489Z,11.71
2023-02-19T06:05:38.426Z,11.75
2023-02-19T06:10:45.605Z,11.72
2023-02-19T06:16:02.873Z,11.75
2023-02-19T06:21:17.429Z,11.73
2023-02-19T06:26:34.371Z,11.67
2023-02-19T06:31:38.646Z,11.71
2023-02-19T06:36:54.285Z,11.77
2023-02-19T06:42:06.032Z,11.85
2023-02-19T06:47:15.238Z,11.87
2023-02-19T06:52:30.038Z,11.82
2023-02-19T06:57:36.686Z,11.72
2023-02-19T07:02:48.874Z,11.79
2023-02-19T07:08:04.615Z,11.85
2023-02-19T07:13:12.266Z,11.87
2023-02-19T07:18:19.562Z,11.86
2023-02-19T07:23:42.877Z,11.87
2023-02-19T07:29:03.829Z,11.94
2023-02-19T07:34:16.341Z,11.91
2023-02-19T07:39:48.645Z,11.96
2023-02-19T07:44:54.840Z,12.02
2023-02-19T07:50:06.242Z,12.11
2023-02-19T07:55:16.327Z,12.15
2023-02-19T08:00:28.878Z,12.18
2023-02-19T08:05:42.143Z,12.10
2023-02-19T08:11:15.936Z,12.06
2023-02-19T08:16:42.563Z,12.05
2023-02-19T08:21:54.687Z,12.10
2023-02-19T08:27:09.400Z,12.08
2023-02-19T08:32:19.053Z,12.17
2023-02-19T08:37:25.932Z,12.28
2023-02-19T08:42:39.468Z,12.35
2023-02-19T09:05:59.024Z,12.57
2023-02-19T10:55:31.832Z,14.74
2023-02-19T11:13:40.095Z,14.58
2023-02-19T11:18:45.418Z,14.58
2023-02-19T11:23:50.757Z,14.70
2023-02-19T11:29:00.938Z,14.72
2023-02-19T11:34:26.286Z,14.83
2023-02-19T11:39:32.790Z,14.89
2023-02-19T11:44:50.642Z,14.88
2023-02-19T11:50:02.953Z,14.93
2023-02-19T11:55:16.492Z,15.18
2023-02-19T12:00:29.402Z,15.45
2023-02-19T12:05:39.472Z,16.01
2023-02-19T12:10:58.828Z,16.24
2023-02-19T12:16:23.033Z,17.00
2023-02-19T12:21:42.519Z,18.26
2023-02-19T12:27:05.170Z,18.84
2023-02-19T12:32:30.272Z,18.28
2023-02-19T12:37:43.301Z,18.06
2023-02-19T12:42:58.745Z,17.94
2023-02-19T12:48:11.525Z,17.89
2023-02-19T12:53:26.802Z,18.09
2023-02-19T12:58:34.749Z,17.95
2023-02-19T13:03:44.279Z,17.73
2023-02-19T13:09:05.443Z,17.46
2023-02-19T13:14:21.637Z,17.38
2023-02-19T13:19:26.240Z,17.43
2023-02-19T13:24:33.025Z,17.33
2023-02-19T13:29:55.449Z,17.23
2023-02-19T13:35:18.099Z,17.28
2023-02-19T13:40:32.257Z,17.46
2023-02-19T13:45:40.084Z,17.67
2023-02-19T13:50:45.063Z,18.02
2023-02-19T13:55:54.056Z,18.12
2023-02-19T14:00:58.106Z,18.22
2023-02-19T14:06:06.156Z,18.18
2023-02-19T14:11:09.667Z,18.12
2023-02-19T14:16:31.096Z,18.07
2023-02-19T14:21:40.573Z,18.16
2023-02-19T14:26:44.507Z,18.46
2023-02-19T14:31:48.556Z,19.11
2023-02-19T14:36:57.438Z,19.61
2023-02-19T14:42:06.360Z,21.18
2023-02-19T14:47:14.923Z,22.31
2023-02-19T14:52:25.235Z,22.57
2023-02-19T14:57:31.257Z,23.35
2023-02-19T15:02:35.501Z,23.24
2023-02-19T15:07:43.092Z,22.91
2023-02-19T15:12:49.193Z,22.87
2023-02-19T15:17:54.111Z,21.58
2023-02-19T15:23:03.061Z,21.71
2023-02-19T15:28:24.305Z,21.51
2023-02-19T15:33:29.568Z,22.10
2023-02-19T15:38:36.713Z,22.18
2023-02-19T15:43:45.460Z,22.34
2023-02-19T15:48:54.747Z,22.35
2023-02-19T15:54:05.376Z,21.77
2023-02-19T15:59:20.100Z,22.01
2023-02-19T16:18:49.299Z,21.14
2023-02-19T16:23:57.126Z,20.91
2023-02-19T16:29:00.446Z,20.52
2023-02-19T16:34:19.938Z,20.37
2023-02-19T16:39:27.026Z,20.25
2023-02-19T16:44:36.802Z,20.09
2023-02-19T16:49:42.632Z,20.11
2023-02-19T16:54:45.803Z,19.88
2023-02-19T16:59:49.433Z,19.72
2023-02-19T17:04:55.941Z,19.66
2023-02-19T17:09:59.144Z,19.54
2023-02-19T17:15:02.301Z,19.41
2023-02-19T17:20:22.940Z,19.20
2023-02-19T17:25:26.136Z,19.09
2023-02-19T17:30:30.971Z,19.04
2023-02-19T17:35:35.547Z,18.96
2023-02-19T17:40:39.611Z,18.81
2023-02-19T17:45:42.997Z,18.77
2023-02-19T17:50:49.317Z,18.68
2023-02-19T17:55:52.451Z,18.55
2023-02-19T18:00:55.720Z,18.53
2023-02-19T18:06:00.271Z,18.51
2023-02-19T18:11:03.425Z,18.56
2023-02-19T18:16:07.331Z,18.36
2023-02-19T18:21:13.762Z,18.33
2023-02-19T18:26:21.772Z,18.26
2023-02-19T18:31:25.006Z,18.17
2023-02-19T18:36:29.693Z,17.90
2023-02-19T18:41:32.820Z,18.10
2023-02-19T18:46:35.940Z,18.09
2023-02-19T18:51:40.488Z,17.95
2023-02-19T18:56:44.517Z,17.87
2023-02-19T19:01:47.869Z,17.75
2023-02-19T19:06:52.490Z,17.79
2023-02-19T19:11:55.780Z,17.64
2023-02-19T19:16:59.100Z,17.33
2023-02-19T19:22:03.836Z,16.75
2023-02-19T19:27:06.773Z,16.43
2023-02-19T19:32:10.867Z,16.39
2023-02-19T19:37:15.585Z,16.29
2023-02-19T19:42:18.790Z,16.15
2023-02-19T19:47:22.205Z,16.04
2023-02-19T19:52:26.837Z,15.97
2023-02-19T19:57:30.081Z,16.02
2023-02-19T20:02:33.310Z,15.98
2023-02-19T20:07:38.036Z,15.93
2023-02-19T20:12:41.716Z,15.87
2023-02-19T20:17:44.988Z,15.74
2023-02-19T20:22:49.679Z,15.62
2023-02-19T20:27:54.020Z,15.61
2023-02-19T20:32:57.293Z,15.62
2023-02-19T20:38:01.901Z,15.17
2023-02-19T20:43:05.513Z,14.83
2023-02-19T20:48:08.753Z,14.71
2023-02-19T20:53:13.432Z,14.58
2023-02-19T20:58:17.362Z,14.42
2023-02-19T21:03:20.752Z,14.39
2023-02-19T21:08:25.339Z,14.22
2023-02-19T21:13:30.197Z,14.04
2023-02-19T21:18:33.349Z,13.76
2023-02-19T21:23:38.430Z,13.91
2023-02-19T21:28:41.793Z,14.26
2023-02-19T21:33:45.003Z,14.47
2023-02-19T21:38:50.144Z,14.09
2023-02-19T21:43:54.862Z,13.88
2023-02-19T21:48:58.764Z,13.66
2023-02-19T21:54:03.603Z,13.68
2023-02-19T21:59:06.833Z,13.40
2023-02-19T22:04:11.610Z,13.35
2023-02-19T22:09:16.370Z,13.39
2023-02-19T22:14:19.631Z,13.41
2023-02-19T22:19:22.930Z,13.42
2023-02-19T22:24:28.670Z,13.42
2023-02-19T22:29:32.250Z,13.43
2023-02-19T22:34:39.922Z,13.54
2023-02-19T22:39:44.521Z,13.93
2023-02-19T22:44:47.776Z,14.14
2023-02-19T22:49:51.534Z,14.13
2023-02-19T22:54:56.165Z,13.61
2023-02-19T22:59:59.617Z,13.47
2023-02-19T23:05:02.879Z,13.37
2023-02-19T23:10:09.358Z,13.81
2023-02-19T23:15:13.022Z,13.86
2023-02-19T23:20:16.350Z,13.82
2023-02-19T23:25:21.057Z,13.92
2023-02-19T23:30:24.796Z,13.84
2023-02-19T23:35:28.054Z,13.56
2023-02-19T23:40:32.646Z,13.42
2023-02-19T23:45:35.787Z,13.23
2023-02-19T23:50:39.058Z,13.14
2023-02-19T23:55:43.888Z,12.95
